Time;durP1;ratioP1;P1;durP2;ratioP2;P2;SDS_P1;SDS_P2;PMS_P1;PMS_P2;Temp;Humidity;BMP_temperature;BMP_pressure;BME280_temperature;BME280_humidity;BME280_pressure;Samples;Min_cycle;Max_cycle;Signal;HPM_P1;HPM_P2
2023/02/06 00:01:28;;;;;;;31.57;3.63;;;3.80;99.90;;;;;;5032952;28;20400;-79
2023/02/06 00:03:53;;;;;;;27.80;3.50;;;3.80;99.90;;;;;;5032787;28;20087;-79
2023/02/06 00:06:19;;;;;;;31.40;3.73;;;3.80;99.90;;;;;;5032831;28;20475;-79
2023/02/06 00:08:48;;;;;;;25.63;4.00;;;3.70;99.90;;;;;;5016130;28;20523;-79
2023/02/06 00:11:19;;;;;;;24.60;3.53;;;3.80;99.90;;;;;;5032249;28;20017;-78
2023/02/06 00:13:45;;;;;;;27.80;3.60;;;3.70;99.90;;;;;;5032658;28;20029;-79
2023/02/06 00:16:18;;;;;;;24.07;2.93;;;3.80;99.90;;;;;;5016056;28;20060;-79
2023/02/06 00:18:44;;;;;;;18.85;2.72;;;3.70;99.90;;;;;;5032569;28;20052;-80
2023/02/06 00:21:10;;;;;;;24.80;2.73;;;3.70;99.90;;;;;;5032833;28;20022;-80
2023/02/06 00:23:36;;;;;;;24.53;3.70;;;3.70;99.90;;;;;;5034110;28;20037;-79
2023/02/06 00:26:02;;;;;;;23.93;3.37;;;3.60;99.90;;;;;;5015977;28;20033;-80
2023/02/06 00:28:27;;;;;;;22.87;4.00;;;3.60;99.90;;;;;;5032763;28;20087;-80
2023/02/06 00:30:53;;;;;;;26.07;3.13;;;3.60;99.90;;;;;;5031722;28;20419;-80
2023/02/06 00:33:19;;;;;;;25.27;2.97;;;3.60;99.90;;;;;;5015564;28;20541;-79
2023/02/06 00:35:44;;;;;;;30.10;2.90;;;3.60;99.90;;;;;;5032206;28;20045;-79
2023/02/06 00:38:10;;;;;;;24.13;3.10;;;3.60;99.90;;;;;;5032210;28;20520;-79
2023/02/06 00:40:36;;;;;;;32.47;3.70;;;3.60;99.90;;;;;;5033558;28;20033;-80
2023/02/06 00:43:02;;;;;;;37.50;4.00;;;3.60;99.90;;;;;;5033272;28;20044;-80
2023/02/06 00:45:28;;;;;;;28.80;3.37;;;3.50;99.90;;;;;;5020990;28;20029;-79
2023/02/06 00:47:53;;;;;;;27.07;2.83;;;3.50;99.90;;;;;;5038332;28;20025;-80
2023/02/06 00:50:19;;;;;;;24.23;2.97;;;3.50;99.90;;;;;;5049780;28;20025;-80
2023/02/06 00:52:45;;;;;;;30.63;4.47;;;3.40;99.90;;;;;;5053453;28;20056;-80
2023/02/06 00:55:10;;;;;;;32.17;3.67;;;3.50;99.90;;;;;;5035663;28;20033;-79
2023/02/06 00:57:36;;;;;;;22.13;3.63;;;3.50;99.90;;;;;;5052096;28;20033;-79
2023/02/06 01:00:05;;;;;;;17.67;3.77;;;3.50;99.90;;;;;;5035314;28;20025;-79
2023/02/06 01:02:31;;;;;;;27.77;4.50;;;3.50;99.90;;;;;;5052397;28;20024;-78
2023/02/06 01:04:56;;;;;;;28.63;3.60;;;3.50;99.90;;;;;;5051827;28;20024;-79
2023/02/06 01:07:22;;;;;;;29.57;4.33;;;3.50;99.90;;;;;;5035223;28;20450;-79
2023/02/06 01:09:47;;;;;;;19.57;3.03;;;3.50;99.90;;;;;;5053363;28;20033;-80
2023/02/06 01:12:13;;;;;;;26.27;3.90;;;3.40;99.90;;;;;;5035289;28;20132;-79
2023/02/06 01:14:39;;;;;;;27.67;4.63;;;3.40;99.90;;;;;;5035297;28;20063;-79
2023/02/06 01:17:04;;;;;;;24.97;3.50;;;3.40;99.90;;;;;;5037752;28;20025;-79
2023/02/06 01:19:30;;;;;;;29.47;4.47;;;3.40;99.90;;;;;;5053691;28;20041;-80
2023/02/06 01:21:55;;;;;;;18.37;3.30;;;3.40;99.90;;;;;;5036089;28;20116;-80
2023/02/06 01:24:21;;;;;;;27.70;3.23;;;3.40;99.90;;;;;;5035286;28;20133;-80
2023/02/06 01:26:47;;;;;;;21.37;3.50;;;3.40;99.90;;;;;;5035192;28;20037;-80
2023/02/06 01:29:12;;;;;;;22.67;3.70;;;3.40;99.90;;;;;;5052246;28;20044;-80
2023/02/06 01:31:38;;;;;;;28.03;3.93;;;3.40;99.90;;;;;;5034869;28;20233;-80
2023/02/06 01:34:04;;;;;;;27.60;3.80;;;3.30;99.90;;;;;;5052821;28;20462;-79
2023/02/06 01:36:30;;;;;;;30.83;5.40;;;3.40;99.90;;;;;;5050739;28;20152;-79
2023/02/06 01:38:56;;;;;;;24.30;3.10;;;3.40;99.90;;;;;;5035307;28;20124;-79
2023/02/06 01:41:22;;;;;;;24.40;3.40;;;3.40;99.90;;;;;;5035061;28;20029;-79
2023/02/06 01:44:14;;;;;;;19.67;3.07;;;3.40;99.90;;;;;;5055176;28;20025;-80
2023/02/06 01:46:43;;;;;;;24.37;3.10;;;3.40;99.90;;;;;;5055321;28;20492;-79
2023/02/06 01:49:13;;;;;;;19.70;3.83;;;3.40;99.90;;;;;;5055093;28;20423;-79
2023/02/06 01:51:40;;;;;;;17.73;3.27;;;3.40;99.90;;;;;;5056832;28;20024;-79
2023/02/06 01:54:07;;;;;;;18.27;2.77;;;3.40;99.90;;;;;;5055216;28;20029;-79
2023/02/06 01:56:38;;;;;;;19.87;2.97;;;3.50;99.90;;;;;;5055319;28;20037;-79
2023/02/06 01:59:04;;;;;;;24.00;2.73;;;3.40;99.90;;;;;;5055282;28;20025;-79
2023/02/06 02:01:30;;;;;;;24.43;3.30;;;3.50;99.90;;;;;;5038629;28;20036;-79
2023/02/06 02:04:05;;;;;;;25.73;2.57;;;3.50;99.90;;;;;;5055406;28;20025;-79
2023/02/06 02:06:32;;;;;;;21.33;3.30;;;3.60;99.90;;;;;;5054575;28;20048;-78
2023/02/06 02:08:58;;;;;;;24.87;2.90;;;3.50;99.90;;;;;;5054915;28;20037;-79
2023/02/06 02:11:32;;;;;;;20.67;3.20;;;3.70;99.90;;;;;;5054483;28;20028;-78
2023/02/06 02:13:59;;;;;;;16.80;2.47;;;3.60;99.90;;;;;;5054803;28;20100;-78
2023/02/06 02:17:10;;;;;;;20.00;2.97;;;3.60;99.90;;;;;;5054812;28;20060;-79
2023/02/06 02:19:47;;;;;;;22.00;3.50;;;3.60;99.90;;;;;;5054601;28;20108;-80
2023/02/06 02:22:50;;;;;;;14.97;2.10;;;3.70;99.90;;;;;;5056153;28;20021;-79
2023/02/06 02:25:50;;;;;;;25.03;2.37;;;3.70;99.90;;;;;;5056059;28;20028;-79
2023/02/06 02:29:00;;;;;;;16.40;1.87;;;3.70;99.90;;;;;;5054700;28;20381;-80
2023/02/06 02:31:43;;;;;;;18.80;3.53;;;3.80;99.90;;;;;;5044542;28;20121;-79
2023/02/06 02:34:37;;;;;;;23.93;2.97;;;3.80;99.90;;;;;;5054350;28;20025;-79
2023/02/06 02:37:13;;;;;;;16.93;2.53;;;3.80;99.90;;;;;;5055146;28;20086;-79
2023/02/06 02:39:47;;;;;;;16.10;2.07;;;3.80;99.90;;;;;;5055490;28;20274;-79
2023/02/06 02:42:31;;;;;;;17.97;2.33;;;3.80;99.90;;;;;;5054381;28;20068;-78
2023/02/06 02:45:14;;;;;;;17.50;4.10;;;3.90;99.90;;;;;;5054269;28;20025;-79
2023/02/06 02:47:50;;;;;;;15.47;2.83;;;3.80;99.90;;;;;;5054045;28;20036;-79
2023/02/06 02:50:18;;;;;;;19.00;2.37;;;3.90;99.90;;;;;;5039264;28;20031;-78
2023/02/06 02:52:44;;;;;;;21.10;3.27;;;3.90;99.90;;;;;;5035282;28;20100;-78
2023/02/06 02:55:21;;;;;;;21.47;3.37;;;3.90;99.90;;;;;;5017082;28;20397;-79
2023/02/06 02:57:51;;;;;;;26.83;2.70;;;3.90;99.90;;;;;;5035196;28;20029;-79
2023/02/06 03:00:17;;;;;;;24.17;2.80;;;4.00;99.90;;;;;;5038687;28;20603;-79
2023/02/06 03:02:45;;;;;;;24.70;3.97;;;3.90;99.90;;;;;;5053962;28;20032;-79
2023/02/06 03:05:13;;;;;;;25.60;2.83;;;4.00;99.90;;;;;;5073315;28;20059;-79
2023/02/06 03:07:48;;;;;;;16.60;2.57;;;4.00;99.90;;;;;;5073572;28;20500;-79
2023/02/06 03:10:45;;;;;;;23.70;2.93;;;4.00;99.90;;;;;;5073595;28;20408;-79
2023/02/06 03:13:20;;;;;;;26.23;2.80;;;4.00;99.90;;;;;;5074802;28;20123;-79
2023/02/06 03:16:09;;;;;;;20.83;2.57;;;4.10;99.90;;;;;;5073484;28;20032;-80
2023/02/06 03:18:47;;;;;;;16.60;2.63;;;4.10;99.90;;;;;;5074681;28;20090;-80
2023/02/06 03:21:16;;;;;;;20.67;3.10;;;4.00;99.90;;;;;;5075202;28;20020;-80
2023/02/06 03:23:44;;;;;;;22.53;2.80;;;4.10;99.90;;;;;;5073515;28;20020;-80
2023/02/06 03:26:14;;;;;;;22.70;3.47;;;4.20;99.90;;;;;;5056493;28;20469;-80
2023/02/06 03:28:52;;;;;;;20.53;3.30;;;4.10;99.90;;;;;;5073515;28;20036;-80
2023/02/06 03:31:31;;;;;;;22.67;2.53;;;4.10;99.90;;;;;;5073221;28;20025;-80
2023/02/06 03:34:12;;;;;;;24.00;2.90;;;4.10;99.90;;;;;;5074459;28;20078;-79
2023/02/06 03:36:38;;;;;;;15.30;2.30;;;4.10;99.90;;;;;;5074186;28;20372;-80
2023/02/06 03:39:04;;;;;;;21.13;2.40;;;4.10;99.90;;;;;;5040132;28;20032;-80
2023/02/06 03:41:34;;;;;;;15.50;2.83;;;4.10;99.90;;;;;;5073461;28;20489;-79
2023/02/06 03:44:04;;;;;;;19.60;3.07;;;4.10;99.90;;;;;;5073140;28;20550;-80
2023/02/06 03:46:33;;;;;;;19.20;3.23;;;4.10;99.90;;;;;;5073214;28;20028;-80
2023/02/06 03:49:03;;;;;;;18.10;3.33;;;4.10;99.90;;;;;;5068058;28;20066;-79
2023/02/06 03:51:33;;;;;;;14.77;2.30;;;4.00;99.90;;;;;;5054378;28;20025;-79
2023/02/06 03:54:03;;;;;;;22.43;3.20;;;4.00;99.90;;;;;;5053089;28;20025;-79
2023/02/06 03:56:37;;;;;;;14.77;2.00;;;4.00;99.90;;;;;;5054397;28;20033;-79
2023/02/06 03:59:03;;;;;;;;;;;3.90;99.90;;;;;;5054805;28;20108;-79
2023/02/06 04:01:29;;;;;;;20.90;2.40;;;3.90;99.90;;;;;;5052198;28;20374;-79
2023/02/06 04:03:56;;;;;;;10.97;2.37;;;3.90;99.90;;;;;;5036335;28;20493;-79
2023/02/06 04:06:21;;;;;;;22.43;2.60;;;3.80;99.90;;;;;;5052221;28;20029;-79
2023/02/06 04:08:47;;;;;;;14.20;2.03;;;3.80;99.90;;;;;;5036522;28;20033;-78
2023/02/06 04:11:13;;;;;;;16.17;2.10;;;3.70;99.90;;;;;;5052069;28;20033;-79
2023/02/06 04:13:38;;;;;;;23.13;2.10;;;3.70;99.90;;;;;;5052372;28;20033;-80
2023/02/06 04:16:04;;;;;;;23.77;2.23;;;3.70;99.90;;;;;;5053851;28;20036;-77
2023/02/06 04:18:30;;;;;;;17.23;2.50;;;3.60;99.90;;;;;;5052739;28;20488;-77
2023/02/06 04:21:01;;;;;;;15.53;2.77;;;3.70;99.90;;;;;;5036108;28;20021;-80
2023/02/06 04:23:26;;;;;;;25.70;2.87;;;3.70;99.90;;;;;;5052539;28;20029;-80
2023/02/06 04:25:52;;;;;;;19.33;2.63;;;3.60;99.90;;;;;;5036156;28;20389;-80
2023/02/06 04:28:18;;;;;;;19.73;2.30;;;3.60;99.90;;;;;;5019290;28;20059;-78
2023/02/06 04:30:43;;;;;;;18.50;2.77;;;3.60;99.90;;;;;;5035969;28;20037;-79
2023/02/06 04:33:09;;;;;;;17.77;2.10;;;3.60;99.90;;;;;;5035488;28;20056;-79
2023/02/06 04:35:34;;;;;;;22.10;2.50;;;3.60;99.90;;;;;;5035515;28;20048;-79
2023/02/06 04:38:00;;;;;;;18.13;3.10;;;3.60;99.90;;;;;;5036140;28;20025;-78
2023/02/06 04:40:26;;;;;;;19.53;2.97;;;3.60;99.90;;;;;;5035803;28;20036;-78
2023/02/06 04:42:51;;;;;;;22.63;2.57;;;3.60;99.90;;;;;;5035986;28;20036;-79
2023/02/06 04:45:17;;;;;;;14.30;2.27;;;3.60;99.90;;;;;;5052707;28;20025;-79
2023/02/06 04:47:43;;;;;;;15.90;2.27;;;3.60;99.90;;;;;;5039897;28;20033;-80
2023/02/06 04:50:09;;;;;;;18.50;2.73;;;3.60;99.90;;;;;;5056089;28;20025;-79
2023/02/06 04:52:35;;;;;;;16.63;3.30;;;3.60;99.90;;;;;;5036155;28;20033;-79
2023/02/06 04:55:00;;;;;;;19.70;2.37;;;3.50;99.90;;;;;;5051729;28;20040;-79
2023/02/06 04:57:26;;;;;;;22.40;2.57;;;3.60;99.90;;;;;;5052132;28;20108;-79
2023/02/06 04:59:51;;;;;;;16.97;2.20;;;3.50;99.90;;;;;;5052460;28;20017;-79
2023/02/06 05:02:17;;;;;;;18.17;3.03;;;3.60;99.90;;;;;;5036442;28;20029;-79
2023/02/06 05:04:43;;;;;;;19.97;2.93;;;3.60;99.90;;;;;;5053008;28;20036;-79
2023/02/06 05:07:08;;;;;;;18.80;2.33;;;3.60;99.90;;;;;;5035453;28;20389;-79
2023/02/06 05:09:34;;;;;;;19.97;2.67;;;3.60;99.90;;;;;;5035321;28;20520;-79
2023/02/06 05:12:00;;;;;;;18.10;1.90;;;3.60;99.90;;;;;;5034863;28;20056;-79
2023/02/06 05:14:25;;;;;;;18.50;3.17;;;3.60;99.90;;;;;;5051584;28;20060;-79
2023/02/06 05:16:51;;;;;;;15.37;2.13;;;3.60;99.90;;;;;;5052654;28;20037;-80
2023/02/06 05:19:16;;;;;;;16.60;2.20;;;3.60;99.90;;;;;;5038459;28;20033;-78
2023/02/06 05:21:42;;;;;;;17.77;2.50;;;3.60;99.90;;;;;;5055752;28;20037;-79
2023/02/06 05:24:08;;;;;;;24.73;2.97;;;3.60;99.90;;;;;;5038778;28;20079;-80
2023/02/06 05:26:33;;;;;;;13.70;1.90;;;3.60;99.90;;;;;;5055941;28;20059;-79
2023/02/06 05:28:59;;;;;;;25.73;2.53;;;3.60;99.90;;;;;;5055297;28;20106;-79
2023/02/06 05:31:25;;;;;;;17.60;1.93;;;3.60;99.90;;;;;;5038737;28;20492;-78
2023/02/06 05:33:50;;;;;;;17.87;2.00;;;3.60;99.90;;;;;;5055530;28;20432;-79
2023/02/06 05:36:16;;;;;;;13.33;3.33;;;3.60;99.90;;;;;;5052099;28;20371;-79
2023/02/06 05:38:42;;;;;;;15.20;2.10;;;3.50;99.90;;;;;;5040554;28;20041;-78
2023/02/06 05:41:11;;;;;;;14.57;2.13;;;3.40;99.90;;;;;;5036379;28;20401;-79
2023/02/06 05:43:37;;;;;;;17.30;1.87;;;3.50;99.90;;;;;;5034376;28;20083;-79
2023/02/06 05:46:03;;;;;;;17.33;2.37;;;3.50;99.90;;;;;;5033619;28;20025;-78
2023/02/06 05:48:29;;;;;;;18.27;2.80;;;3.50;99.90;;;;;;5035208;28;20025;-78
2023/02/06 05:50:57;;;;;;;16.07;2.07;;;3.50;99.90;;;;;;5017785;28;20040;-78
2023/02/06 05:53:23;;;;;;;16.30;1.67;;;3.40;99.90;;;;;;5034503;28;20026;-82
2023/02/06 05:55:49;;;;;;;20.00;2.23;;;3.40;99.90;;;;;;5018311;28;20589;-80
2023/02/06 05:58:15;;;;;;;15.73;2.23;;;3.40;99.90;;;;;;5033225;28;20029;-80
2023/02/06 06:00:40;;;;;;;18.17;2.00;;;3.40;99.90;;;;;;5054928;28;20048;-81
2023/02/06 06:03:06;;;;;;;12.57;1.80;;;3.40;99.90;;;;;;5038593;28;20408;-81
2023/02/06 06:05:32;;;;;;;21.90;2.80;;;3.40;99.90;;;;;;5054323;28;20068;-80
2023/02/06 06:07:57;;;;;;;16.60;2.20;;;3.40;99.90;;;;;;5038488;28;20052;-80
2023/02/06 06:10:23;;;;;;;19.27;2.00;;;3.40;99.90;;;;;;5038703;28;20021;-81
2023/02/06 06:12:48;;;;;;;15.70;2.07;;;3.40;99.90;;;;;;5056104;28;20447;-81
2023/02/06 06:15:14;;;;;;;13.90;2.20;;;3.40;99.90;;;;;;5054865;28;20542;-80
2023/02/06 06:17:40;;;;;;;15.53;2.20;;;3.40;99.90;;;;;;5038364;28;20123;-81
2023/02/06 06:20:06;;;;;;;14.70;1.60;;;3.40;99.90;;;;;;5054567;28;20033;-80
2023/02/06 06:22:31;;;;;;;15.60;1.73;;;3.40;99.90;;;;;;5047110;28;20151;-80
2023/02/06 06:24:57;;;;;;;17.07;2.03;;;3.40;99.90;;;;;;5039863;28;20037;-80
2023/02/06 06:27:23;;;;;;;13.50;1.93;;;3.40;99.90;;;;;;5018548;28;20025;-80
2023/02/06 06:29:48;;;;;;;17.47;1.83;;;3.30;99.90;;;;;;5041744;28;20037;-80
2023/02/06 06:32:14;;;;;;;16.00;3.10;;;3.40;99.90;;;;;;5030510;28;20021;-79
2023/02/06 06:34:39;;;;;;;17.77;2.83;;;3.40;99.90;;;;;;5021174;28;20040;-80
2023/02/06 06:37:05;;;;;;;18.30;2.67;;;3.50;99.90;;;;;;5044300;28;20037;-81
2023/02/06 06:39:31;;;;;;;15.87;2.30;;;3.50;99.90;;;;;;5020355;28;20025;-81
2023/02/06 06:41:56;;;;;;;17.83;2.60;;;3.50;99.90;;;;;;5069357;28;20123;-80
2023/02/06 06:44:22;;;;;;;17.00;2.57;;;3.40;99.90;;;;;;5000879;28;20125;-78
2023/02/06 06:46:47;;;;;;;11.40;2.43;;;3.50;99.90;;;;;;5034468;28;20027;-78
2023/02/06 06:49:13;;;;;;;19.17;1.53;;;3.50;99.90;;;;;;5033309;28;20022;-78
2023/02/06 06:51:38;;;;;;;17.07;1.73;;;3.50;99.90;;;;;;5018277;28;20030;-78
2023/02/06 06:54:04;;;;;;;19.53;2.23;;;3.50;99.90;;;;;;5034209;28;20458;-78
2023/02/06 06:56:30;;;;;;;12.07;2.53;;;3.50;99.90;;;;;;5017647;28;20132;-79
2023/02/06 06:58:56;;;;;;;12.73;1.80;;;3.50;99.90;;;;;;5049777;28;20033;-78
2023/02/06 07:01:21;;;;;;;21.63;1.97;;;3.50;99.90;;;;;;5054074;28;20037;-78
2023/02/06 07:03:47;;;;;;;10.87;1.73;;;3.50;99.90;;;;;;5053942;28;20112;-79
2023/02/06 07:06:14;;;;;;;10.13;1.90;;;3.50;99.90;;;;;;5036232;28;20035;-79
2023/02/06 07:08:40;;;;;;;14.83;1.80;;;3.50;99.90;;;;;;5053367;28;20039;-78
2023/02/06 07:11:10;;;;;;;15.70;1.90;;;3.60;99.90;;;;;;5055876;28;20021;-79
2023/02/06 07:13:36;;;;;;;14.40;2.10;;;3.60;99.90;;;;;;5053959;28;20045;-79
2023/02/06 07:16:02;;;;;;;13.80;2.13;;;3.70;99.90;;;;;;5053147;28;20366;-79
2023/02/06 07:18:27;;;;;;;10.00;1.70;;;3.60;99.90;;;;;;5037540;28;20039;-79
2023/02/06 07:20:53;;;;;;;11.57;1.90;;;3.60;99.90;;;;;;5036706;28;20056;-79
2023/02/06 07:23:18;;;;;;;13.77;1.80;;;3.60;99.90;;;;;;5037386;28;20029;-79
2023/02/06 07:25:44;;;;;;;16.97;2.27;;;3.60;99.90;;;;;;5053959;28;20108;-79
2023/02/06 07:28:10;;;;;;;14.50;2.00;;;3.70;99.90;;;;;;5036782;28;20040;-80
2023/02/06 07:30:35;;;;;;;10.80;1.53;;;3.70;99.90;;;;;;5053660;28;20028;-80
2023/02/06 07:33:03;;;;;;;10.63;1.97;;;3.70;99.90;;;;;;5053882;28;20052;-80
2023/02/06 07:35:29;;;;;;;10.00;1.83;;;3.70;99.90;;;;;;5053389;28;20036;-79
2023/02/06 07:37:55;;;;;;;10.27;1.73;;;3.80;99.90;;;;;;5054412;28;20025;-79
2023/02/06 07:40:21;;;;;;;9.43;1.70;;;3.90;99.90;;;;;;5035945;28;20041;-79
2023/02/06 07:42:47;;;;;;;12.90;1.47;;;3.80;99.90;;;;;;5052948;28;20029;-79
2023/02/06 07:45:12;;;;;;;7.60;1.63;;;3.90;99.90;;;;;;5053098;28;20029;-79
2023/02/06 07:47:38;;;;;;;14.17;1.93;;;3.90;99.90;;;;;;5053243;28;20500;-79
2023/02/06 07:50:04;;;;;;;10.43;1.97;;;4.00;99.90;;;;;;5053146;28;20029;-79
2023/02/06 07:52:30;;;;;;;14.97;1.63;;;3.90;99.90;;;;;;5052919;28;20032;-79
2023/02/06 07:54:56;;;;;;;14.17;2.13;;;4.00;99.90;;;;;;5035757;28;20028;-79
2023/02/06 07:57:21;;;;;;;12.50;1.60;;;4.10;99.90;;;;;;5052846;28;20029;-79
2023/02/06 07:59:47;;;;;;;16.73;2.07;;;4.10;99.90;;;;;;5036288;28;20028;-79
2023/02/06 08:02:13;;;;;;;12.03;1.83;;;4.10;99.90;;;;;;5036344;28;20052;-79
2023/02/06 08:04:38;;;;;;;10.67;1.80;;;4.20;99.90;;;;;;5035874;28;20076;-79
2023/02/06 08:07:05;;;;;;;6.23;1.07;;;4.20;99.90;;;;;;5035759;28;20033;-78
2023/02/06 08:09:31;;;;;;;13.03;2.03;;;4.20;99.90;;;;;;5036132;28;20032;-79
2023/02/06 08:11:57;;;;;;;17.57;1.93;;;4.30;99.90;;;;;;5053910;28;20045;-78
2023/02/06 08:14:24;;;;;;;17.53;1.47;;;4.30;99.90;;;;;;5069640;28;20029;-78
2023/02/06 08:16:50;;;;;;;13.37;2.97;;;4.30;99.90;;;;;;5052487;28;20033;-78
2023/02/06 08:19:16;;;;;;;12.00;2.40;;;4.40;99.90;;;;;;5053497;28;20396;-78
2023/02/06 08:21:42;;;;;;;11.67;1.53;;;4.40;99.90;;;;;;5053432;28;20025;-79
2023/02/06 08:24:10;;;;;;;13.73;2.10;;;4.50;99.90;;;;;;5052087;28;20033;-78
2023/02/06 08:26:36;;;;;;;12.27;1.80;;;4.50;99.90;;;;;;5035793;28;20029;-78
2023/02/06 08:29:03;;;;;;;11.43;1.53;;;4.60;99.90;;;;;;5052114;28;20087;-78
2023/02/06 08:31:38;;;;;;;9.40;1.43;;;4.70;99.90;;;;;;5052552;28;20025;-77
2023/02/06 08:34:05;;;;;;;12.17;1.50;;;4.70;99.90;;;;;;5053209;28;20052;-77
2023/02/06 08:36:32;;;;;;;13.17;2.03;;;4.80;99.90;;;;;;5051723;28;20052;-77
2023/02/06 08:38:58;;;;;;;9.97;1.90;;;4.80;99.90;;;;;;5053068;28;20036;-77
2023/02/06 08:41:30;;;;;;;12.53;1.80;;;4.80;99.90;;;;;;5035518;28;20037;-78
2023/02/06 08:44:00;;;;;;;12.27;2.13;;;4.80;99.90;;;;;;5052051;28;20021;-78
2023/02/06 08:46:28;;;;;;;15.63;1.83;;;4.90;99.90;;;;;;5053621;28;20108;-78
2023/02/06 08:49:05;;;;;;;13.97;2.27;;;5.00;99.90;;;;;;5052781;28;20025;-78
2023/02/06 08:51:32;;;;;;;11.40;2.00;;;5.10;99.90;;;;;;5053332;28;20024;-78
2023/02/06 08:54:00;;;;;;;14.37;2.83;;;5.10;99.90;;;;;;5035019;28;20393;-77
2023/02/06 08:56:26;;;;;;;14.07;2.33;;;5.20;99.90;;;;;;5053069;28;20037;-77
2023/02/06 08:58:52;;;;;;;18.30;2.50;;;5.20;99.90;;;;;;5035592;28;20095;-77
2023/02/06 09:01:19;;;;;;;14.77;2.13;;;5.30;99.90;;;;;;5052376;28;20025;-78
2023/02/06 09:03:45;;;;;;;15.17;1.90;;;5.40;99.90;;;;;;5051399;28;20025;-78
2023/02/06 09:06:12;;;;;;;17.50;2.10;;;5.50;99.90;;;;;;5051311;28;20511;-78
2023/02/06 09:08:38;;;;;;;14.80;2.73;;;5.60;99.90;;;;;;5051630;28;20082;-78
2023/02/06 09:11:14;;;;;;;24.00;2.60;;;5.70;99.90;;;;;;5052002;28;20021;-78
2023/02/06 09:13:41;;;;;;;16.97;2.37;;;5.80;99.90;;;;;;5052506;28;20048;-78
2023/02/06 09:16:07;;;;;;;15.57;1.90;;;6.00;99.90;;;;;;5051498;28;20485;-78
2023/02/06 09:18:32;;;;;;;18.87;2.47;;;6.10;99.90;;;;;;5035314;28;20026;-78
2023/02/06 09:21:19;;;;;;;10.83;2.13;;;6.20;99.90;;;;;;5035089;28;20025;-78
2023/02/06 09:23:49;;;;;;;12.83;2.37;;;6.30;99.90;;;;;;5051652;28;20064;-78
2023/02/06 09:26:20;;;;;;;18.47;3.10;;;6.50;99.90;;;;;;5051487;28;20033;-78
2023/02/06 09:28:46;;;;;;;16.30;2.57;;;6.60;99.90;;;;;;5052663;28;20044;-78
2023/02/06 09:31:12;;;;;;;19.63;2.87;;;6.70;99.90;;;;;;5035401;28;20477;-78
2023/02/06 09:33:39;;;;;;;14.00;2.67;;;6.80;99.90;;;;;;5051826;28;20029;-78
2023/02/06 09:36:07;;;;;;;16.13;3.27;;;6.90;99.90;;;;;;5051034;28;20051;-78
2023/02/06 09:38:34;;;;;;;10.50;2.17;;;7.00;99.90;;;;;;5051405;28;20035;-78
2023/02/06 09:41:10;;;;;;;13.30;3.17;;;7.10;99.90;;;;;;5051029;28;20029;-78
2023/02/06 09:43:36;;;;;;;16.47;2.77;;;7.20;99.90;;;;;;5051591;28;20048;-78
2023/02/06 09:46:04;;;;;;;14.53;2.67;;;7.30;99.90;;;;;;5035043;28;20384;-78
2023/02/06 09:48:35;;;;;;;18.07;2.97;;;7.40;99.90;;;;;;5051267;28;20036;-79
2023/02/06 09:51:14;;;;;;;12.00;2.30;;;7.50;99.90;;;;;;5051557;28;20470;-78
2023/02/06 09:53:54;;;;;;;17.60;2.80;;;7.60;99.90;;;;;;5051216;28;20031;-78
2023/02/06 09:56:35;;;;;;;11.90;2.23;;;7.70;99.90;;;;;;5051430;28;20064;-78
2023/02/06 09:59:26;;;;;;;15.20;3.67;;;7.90;99.90;;;;;;5052512;28;20029;-78
2023/02/06 10:02:32;;;;;;;10.33;1.87;;;8.00;99.90;;;;;;5052164;28;20531;-78
2023/02/06 10:05:06;;;;;;;20.50;3.20;;;8.20;99.90;;;;;;5031715;28;20065;-79
2023/02/06 10:07:41;;;;;;;20.27;2.93;;;8.30;99.90;;;;;;5056402;28;20578;-78
2023/02/06 10:10:14;;;;;;;15.07;2.23;;;8.40;99.90;;;;;;5054437;28;20052;-78
2023/02/06 10:13:09;;;;;;;15.57;2.33;;;8.50;99.90;;;;;;5054908;28;20045;-78
2023/02/06 10:15:58;;;;;;;19.27;3.20;;;8.70;99.90;;;;;;5053033;28;20478;-78
2023/02/06 10:18:45;;;;;;;15.68;2.08;;;9.00;99.90;;;;;;5054712;28;20053;-78
2023/02/06 10:21:36;;;;;;;12.80;2.15;;;9.30;99.90;;;;;;5055933;28;20059;-78
2023/02/06 10:24:12;;;;;;;12.23;2.20;;;9.60;99.90;;;;;;5054981;28;20548;-78
2023/02/06 10:26:39;;;;;;;12.90;2.15;;;9.90;99.90;;;;;;5054731;28;20032;-78
2023/02/06 10:29:09;;;;;;;11.48;2.45;;;10.30;99.90;;;;;;5054340;28;20504;-79
2023/02/06 10:31:48;;;;;;;19.38;2.10;;;10.50;99.90;;;;;;5055989;28;20025;-79
2023/02/06 10:34:37;;;;;;;9.13;1.40;;;10.80;99.90;;;;;;5054796;28;20025;-78
2023/02/06 10:37:18;;;;;;;13.35;2.38;;;11.10;99.90;;;;;;5053876;28;20048;-78
2023/02/06 10:40:09;;;;;;;16.17;1.83;;;11.50;99.90;;;;;;5054340;28;20423;-78
2023/02/06 10:42:53;;;;;;;13.68;2.30;;;11.70;99.90;;;;;;5055812;28;20067;-78
2023/02/06 10:45:31;;;;;;;16.45;2.92;;;11.80;99.90;;;;;;5055512;28;20075;-78
2023/02/06 10:48:07;;;;;;;9.90;1.90;;;11.70;99.90;;;;;;5054091;28;20645;-78
2023/02/06 10:50:36;;;;;;;15.48;2.65;;;11.70;99.90;;;;;;5054027;28;20033;-79
2023/02/06 10:53:18;;;;;;;16.05;2.40;;;11.60;98.80;;;;;;5055210;28;20033;-79
2023/02/06 10:55:56;;;;;;;13.77;1.92;;;11.50;98.30;;;;;;5054899;28;20041;-79
2023/02/06 10:58:50;;;;;;;12.07;2.90;;;11.40;98.30;;;;;;5053680;28;20029;-78
2023/02/06 11:01:17;;;;;;;17.35;2.03;;;11.40;98.10;;;;;;5054248;28;20062;-79
2023/02/06 11:03:51;;;;;;;18.55;3.17;;;11.60;97.90;;;;;;5052693;28;20051;-79
2023/02/06 11:06:19;;;;;;;10.98;1.75;;;11.90;97.80;;;;;;5053642;28;20047;-79
2023/02/06 11:08:46;;;;;;;12.68;2.35;;;12.30;98.00;;;;;;5035522;28;20378;-79
2023/02/06 11:11:17;;;;;;;14.52;2.88;;;12.60;97.90;;;;;;5053741;28;20112;-79
2023/02/06 11:13:47;;;;;;;13.80;2.35;;;13.00;97.20;;;;;;5055118;28;20045;-79
2023/02/06 11:16:17;;;;;;;13.50;1.80;;;13.30;96.60;;;;;;5053201;28;20570;-78
2023/02/06 11:18:45;;;;;;;11.38;1.63;;;13.60;96.20;;;;;;5054885;28;20032;-78
2023/02/06 11:21:13;;;;;;;10.10;1.85;;;14.20;96.10;;;;;;5054200;28;20078;-79
2023/02/06 11:23:41;;;;;;;12.25;1.92;;;14.70;94.90;;;;;;5053882;28;20029;-79
2023/02/06 11:26:21;;;;;;;12.13;2.47;;;14.90;93.00;;;;;;5053933;28;20112;-79
2023/02/06 11:28:53;;;;;;;14.32;2.00;;;14.90;91.40;;;;;;5053763;28;20033;-79
2023/02/06 11:31:36;;;;;;;13.05;1.95;;;14.80;90.20;;;;;;5054913;28;20025;-80
2023/02/06 11:34:03;;;;;;;11.77;1.88;;;14.70;87.60;;;;;;5053403;28;20025;-79
2023/02/06 11:36:32;;;;;;;12.13;1.83;;;14.60;87.10;;;;;;5036721;28;20116;-79
2023/02/06 11:39:00;;;;;;;11.77;1.73;;;14.70;86.40;;;;;;5053231;28;20029;-79
2023/02/06 11:41:27;;;;;;;9.77;1.90;;;15.00;86.10;;;;;;5054916;28;20017;-79
2023/02/06 11:44:01;;;;;;;12.63;2.17;;;15.60;85.00;;;;;;5054176;28;20032;-79
2023/02/06 11:46:35;;;;;;;9.20;1.67;;;16.20;84.80;;;;;;5054128;28;20113;-78
2023/02/06 11:49:28;;;;;;;9.30;2.00;;;16.90;83.50;;;;;;5055826;28;20024;-78
2023/02/06 11:51:59;;;;;;;11.30;1.63;;;17.50;81.60;;;;;;5054583;28;20017;-78
2023/02/06 11:54:34;;;;;;;10.55;1.65;;;18.30;80.80;;;;;;5055055;28;20025;-78
2023/02/06 11:57:32;;;;;;;10.68;2.00;;;18.90;78.10;;;;;;5036796;28;20068;-78
2023/02/06 12:00:19;;;;;;;10.35;1.73;;;19.30;75.80;;;;;;5040242;28;20072;-78
2023/02/06 12:02:53;;;;;;;8.57;1.75;;;19.50;71.60;;;;;;5053141;28;20021;-79
2023/02/06 12:05:21;;;;;;;9.63;1.70;;;19.50;69.50;;;;;;5054061;28;20021;-78
2023/02/06 12:08:08;;;;;;;11.23;2.08;;;19.70;68.20;;;;;;5054269;28;20055;-79
2023/02/06 12:10:39;;;;;;;10.45;1.88;;;19.90;65.60;;;;;;5052424;28;20063;-79
2023/02/06 12:13:06;;;;;;;9.52;1.50;;;20.10;65.80;;;;;;5054211;28;20040;-79
2023/02/06 12:15:39;;;;;;;6.68;1.48;;;20.10;64.50;;;;;;5052806;28;20045;-79
2023/02/06 12:18:29;;;;;;;8.25;1.48;;;20.00;63.00;;;;;;5052614;28;20040;-79
2023/02/06 12:21:04;;;;;;;11.43;1.95;;;19.90;62.70;;;;;;5042023;28;20033;-79
2023/02/06 12:23:51;;;;;;;7.70;1.40;;;20.00;62.00;;;;;;5053096;28;20025;-79
2023/02/06 12:26:19;;;;;;;9.63;1.52;;;19.90;60.00;;;;;;5052447;28;20060;-78
2023/02/06 12:28:51;;;;;;;9.05;1.50;;;19.60;58.30;;;;;;5052436;28;20477;-78
2023/02/06 12:31:47;;;;;;;10.32;1.40;;;19.10;57.30;;;;;;5052769;28;20465;-78
2023/02/06 12:34:18;;;;;;;10.02;1.88;;;18.40;56.50;;;;;;5039746;28;20067;-79
2023/02/06 12:37:14;;;;;;;12.32;1.70;;;17.70;57.30;;;;;;5051485;28;20110;-78
2023/02/06 12:39:42;;;;;;;8.77;1.38;;;17.00;57.20;;;;;;5052474;28;20052;-79
2023/02/06 12:42:20;;;;;;;12.70;1.90;;;16.40;58.20;;;;;;5053529;28;20473;-78
2023/02/06 12:45:17;;;;;;;10.82;1.95;;;15.90;58.90;;;;;;5051997;28;20036;-79
2023/02/06 12:47:55;;;;;;;9.68;1.25;;;15.60;60.00;;;;;;5045678;28;20120;-78
2023/02/06 12:50:29;;;;;;;11.55;1.63;;;15.70;60.80;;;;;;5053172;28;20492;-79
2023/02/06 12:53:05;;;;;;;12.63;1.70;;;15.80;60.90;;;;;;5051830;28;20454;-79
2023/02/06 12:55:33;;;;;;;9.70;1.75;;;16.10;61.30;;;;;;5051945;28;20032;-79
2023/02/06 12:57:59;;;;;;;9.57;1.58;;;16.50;61.90;;;;;;5052161;28;20116;-79
2023/02/06 13:00:34;;;;;;;16.17;2.47;;;17.10;61.80;;;;;;5035598;28;20025;-79
2023/02/06 13:03:29;;;;;;;12.35;2.00;;;17.80;60.80;;;;;;5051900;28;20115;-79